Time;durP1;ratioP1;P1;durP2;ratioP2;P2;SDS_P1;SDS_P2;PMS_P1;PMS_P2;Temp;Humidity;BMP_temperature;BMP_pressure;BME280_temperature;BME280_humidity;BME280_pressure;Samples;Min_cycle;Max_cycle;Signal;HPM_P1;HPM_P2
2021/08/12 00:01:31;;;;;;;5.60;1.23;;;13.40;87.70;;;;;;5062056;28;20030;-68
2021/08/12 00:03:57;;;;;;;3.83;0.90;;;13.50;87.80;;;;;;5060477;28;20032;-68
2021/08/12 00:06:24;;;;;;;6.53;1.83;;;13.40;87.80;;;;;;5055215;28;20016;-68
2021/08/12 00:08:51;;;;;;;9.88;0.75;;;13.40;87.70;;;;;;5058488;28;20024;-68
2021/08/12 00:11:17;;;;;;;3.70;1.27;;;13.50;87.90;;;;;;5058947;28;20020;-68
2021/08/12 00:13:44;;;;;;;2.47;0.57;;;13.40;87.80;;;;;;5060190;28;20016;-68
2021/08/12 00:16:10;;;;;;;5.88;1.27;;;13.50;87.90;;;;;;5066480;28;20100;-68
2021/08/12 00:18:39;;;;;;;1.52;0.95;;;13.40;87.50;;;;;;5057601;28;20561;-69
2021/08/12 00:21:05;;;;;;;5.13;0.70;;;13.50;87.50;;;;;;5061355;28;20013;-68
2021/08/12 00:23:31;;;;;;;1.17;0.60;;;13.50;88.20;;;;;;5057563;28;20402;-68
2021/08/12 00:25:58;;;;;;;1.92;0.50;;;13.50;87.00;;;;;;5061835;28;20395;-69
2021/08/12 00:28:24;;;;;;;3.15;0.93;;;13.50;86.70;;;;;;5059611;28;20017;-68
2021/08/12 00:30:51;;;;;;;4.45;1.70;;;13.50;86.70;;;;;;5059320;28;20025;-68
2021/08/12 00:33:17;;;;;;;4.47;0.90;;;13.50;86.00;;;;;;5060556;28;20381;-69
2021/08/12 00:35:44;;;;;;;2.63;1.52;;;13.50;85.80;;;;;;5052369;28;20046;-69
2021/08/12 00:38:10;;;;;;;5.97;0.80;;;13.60;85.80;;;;;;5060926;28;20017;-69
2021/08/12 00:40:38;;;;;;;3.20;0.70;;;13.50;85.40;;;;;;5056579;28;20037;-69
2021/08/12 00:43:04;;;;;;;3.53;0.70;;;13.50;85.20;;;;;;5059650;28;20024;-68
2021/08/12 00:45:31;;;;;;;2.15;0.68;;;13.50;85.30;;;;;;5055796;28;20063;-68
2021/08/12 00:47:57;;;;;;;2.55;0.77;;;13.50;85.20;;;;;;5055547;28;20079;-68
2021/08/12 00:50:24;;;;;;;3.80;1.27;;;13.50;85.50;;;;;;5062867;28;20036;-68
2021/08/12 00:52:52;;;;;;;3.38;0.85;;;13.50;85.70;;;;;;5062640;28;20005;-69
2021/08/12 00:55:18;;;;;;;5.05;1.25;;;13.50;86.00;;;;;;5056055;28;20056;-69
2021/08/12 00:57:45;;;;;;;3.45;1.27;;;13.50;86.10;;;;;;5057606;28;20104;-69
2021/08/12 01:00:14;;;;;;;3.78;0.95;;;13.50;86.30;;;;;;5062742;28;20144;-68
2021/08/12 01:02:40;;;;;;;2.25;0.80;;;13.40;86.40;;;;;;5060289;28;20078;-70
2021/08/12 01:05:09;;;;;;;5.68;1.27;;;13.40;86.50;;;;;;5054070;28;20062;-69
2021/08/12 01:08:03;;;;;;;3.33;1.00;;;13.40;86.80;;;;;;5059584;28;20089;-68
2021/08/12 01:10:49;;;;;;;1.65;0.60;;;13.30;86.90;;;;;;5054966;28;20473;-68
2021/08/12 01:13:43;;;;;;;4.13;0.70;;;13.30;87.20;;;;;;5059646;28;20035;-69
2021/08/12 01:16:12;;;;;;;2.60;0.80;;;13.30;87.70;;;;;;5061441;28;20040;-68
2021/08/12 01:19:23;;;;;;;3.80;0.77;;;13.30;87.80;;;;;;5056960;28;20469;-68
2021/08/12 01:22:05;;;;;;;1.95;0.85;;;13.30;88.00;;;;;;5045738;28;20033;-68
2021/08/12 01:24:42;;;;;;;4.82;1.15;;;13.30;88.20;;;;;;5053410;28;20021;-68
2021/08/12 01:27:14;;;;;;;5.93;1.23;;;13.30;88.30;;;;;;5060648;28;20025;-68
2021/08/12 01:30:13;;;;;;;3.63;1.83;;;13.30;88.50;;;;;;5058083;28;20545;-68
2021/08/12 01:32:52;;;;;;;4.15;1.58;;;13.30;88.60;;;;;;5052707;28;20029;-68
2021/08/12 01:35:21;;;;;;;2.55;1.27;;;13.40;88.60;;;;;;5052677;28;20037;-68
2021/08/12 01:38:17;;;;;;;7.05;1.73;;;13.40;88.50;;;;;;5053848;28;20025;-68
2021/08/12 01:40:44;;;;;;;;;;;13.40;88.70;;;;;;5055498;28;20040;-68
2021/08/12 01:43:20;;;;;;;2.97;1.05;;;13.40;88.90;;;;;;5059773;28;21006;-68
2021/08/12 01:45:52;;;;;;;5.78;1.15;;;13.40;89.10;;;;;;5052163;28;20022;-69
2021/08/12 01:48:23;;;;;;;3.35;1.17;;;13.30;89.30;;;;;;5056182;28;20443;-68
2021/08/12 01:50:51;;;;;;;2.60;1.52;;;13.40;89.60;;;;;;5056326;28;20016;-68
2021/08/12 01:53:20;;;;;;;4.85;2.28;;;13.40;90.00;;;;;;5054343;28;20017;-69
2021/08/12 01:55:48;;;;;;;2.03;0.68;;;13.30;90.00;;;;;;5053496;28;20025;-68
2021/08/12 02:01:37;;;;;;;4.43;0.73;;;13.20;90.10;;;;;;5054698;28;20720;-69
2021/08/12 02:04:04;;;;;;;3.72;0.75;;;13.20;90.10;;;;;;5055349;28;20037;-68
2021/08/12 02:06:36;;;;;;;2.10;1.10;;;13.20;90.00;;;;;;5060872;28;20039;-68
2021/08/12 02:09:04;;;;;;;6.50;1.50;;;13.10;90.00;;;;;;5058990;28;20025;-68
2021/08/12 02:11:33;;;;;;;3.00;0.90;;;13.10;89.90;;;;;;5057208;28;20028;-68
2021/08/12 02:14:00;;;;;;;3.97;0.85;;;13.10;89.70;;;;;;5057656;28;20044;-70
2021/08/12 02:16:27;;;;;;;5.35;1.83;;;13.10;89.20;;;;;;5055806;28;20033;-68
2021/08/12 02:18:54;;;;;;;3.83;0.80;;;13.10;88.80;;;;;;5061425;28;20123;-70
2021/08/12 02:21:25;;;;;;;2.17;1.00;;;13.10;88.60;;;;;;5056497;28;20043;-68
2021/08/12 02:24:06;;;;;;;5.20;0.60;;;13.10;88.60;;;;;;5048436;28;20018;-69
2021/08/12 02:26:44;;;;;;;4.07;1.10;;;13.00;88.60;;;;;;5051815;28;20488;-72
2021/08/12 02:29:13;;;;;;;4.13;0.98;;;13.10;88.60;;;;;;5055713;28;20021;-69
2021/08/12 02:31:44;;;;;;;5.60;1.13;;;13.10;88.00;;;;;;5055908;28;20364;-68
2021/08/12 02:34:11;;;;;;;5.60;0.90;;;13.10;87.90;;;;;;5054710;28;20028;-68
2021/08/12 02:36:40;;;;;;;10.20;1.23;;;13.10;87.60;;;;;;5053798;28;20033;-68
2021/08/12 02:39:09;;;;;;;5.20;1.15;;;13.10;87.50;;;;;;5052121;28;20354;-68
2021/08/12 02:41:36;;;;;;;3.50;0.90;;;13.10;87.50;;;;;;5055477;28;20048;-68
2021/08/12 02:44:03;;;;;;;3.78;1.00;;;13.10;87.40;;;;;;5055602;28;20107;-68
2021/08/12 02:46:31;;;;;;;3.67;1.10;;;13.10;87.30;;;;;;5054238;28;20063;-68
2021/08/12 02:48:59;;;;;;;4.65;2.63;;;13.10;87.40;;;;;;5058116;28;20494;-69
2021/08/12 02:51:28;;;;;;;5.60;1.23;;;13.10;87.50;;;;;;5054225;28;20060;-69
2021/08/12 02:53:55;;;;;;;3.70;0.98;;;13.10;87.40;;;;;;5054824;28;20036;-68
2021/08/12 02:56:24;;;;;;;3.50;1.08;;;13.10;87.30;;;;;;5053589;28;20036;-68
2021/08/12 02:58:52;;;;;;;4.28;0.60;;;13.10;87.60;;;;;;5056674;28;20478;-68
2021/08/12 03:01:20;;;;;;;4.28;0.60;;;12.90;87.20;;;;;;5050164;28;20025;-68
2021/08/12 03:03:48;;;;;;;2.97;0.82;;;12.90;87.30;;;;;;5052956;28;20019;-68
2021/08/12 03:06:20;;;;;;;6.20;1.48;;;12.90;87.50;;;;;;5058206;28;20021;-68
2021/08/12 03:08:49;;;;;;;1.92;0.77;;;12.90;87.30;;;;;;5058431;28;20030;-69
2021/08/12 03:11:18;;;;;;;1.58;0.68;;;12.80;87.00;;;;;;5062400;28;20674;-68
2021/08/12 03:13:46;;;;;;;1.58;1.13;;;12.80;87.20;;;;;;5059334;28;20070;-71
2021/08/12 03:16:12;;;;;;;2.60;0.70;;;12.80;87.10;;;;;;5064200;28;20009;-68
2021/08/12 03:18:39;;;;;;;2.47;1.00;;;12.80;87.20;;;;;;5058911;28;20029;-69
2021/08/12 03:21:12;;;;;;;4.28;0.90;;;12.70;87.10;;;;;;5060357;28;20567;-69
2021/08/12 03:23:40;;;;;;;6.35;1.88;;;12.70;87.20;;;;;;5061041;28;20032;-68
2021/08/12 03:26:06;;;;;;;4.57;1.00;;;12.70;86.90;;;;;;5059001;28;20024;-68
2021/08/12 03:28:34;;;;;;;3.10;0.90;;;12.70;86.60;;;;;;5061880;28;20013;-69
2021/08/12 03:31:00;;;;;;;3.33;1.30;;;12.60;86.80;;;;;;5060032;28;20475;-68
2021/08/12 03:33:27;;;;;;;8.20;1.30;;;12.60;86.70;;;;;;5058147;28;20063;-68
2021/08/12 03:35:54;;;;;;;3.58;1.52;;;12.60;86.90;;;;;;5060677;28;20036;-69
2021/08/12 03:38:22;;;;;;;6.25;1.70;;;12.60;86.90;;;;;;5060714;28;20371;-68
2021/08/12 03:40:49;;;;;;;9.23;1.52;;;12.60;86.90;;;;;;5056553;28;20026;-69
2021/08/12 03:43:16;;;;;;;3.45;1.20;;;12.70;86.90;;;;;;5059687;28;20013;-69
2021/08/12 03:45:43;;;;;;;4.05;1.02;;;12.70;86.80;;;;;;5065258;28;20012;-69
2021/08/12 03:48:10;;;;;;;4.30;2.00;;;12.70;86.50;;;;;;5061785;28;20528;-68
2021/08/12 03:50:37;;;;;;;12.25;3.35;;;12.70;86.40;;;;;;5057637;28;20748;-69
2021/08/12 03:53:04;;;;;;;7.22;1.20;;;12.70;86.20;;;;;;5061549;28;20379;-69
2021/08/12 03:55:30;;;;;;;15.38;9.55;;;12.60;86.00;;;;;;5053521;28;20140;-68
2021/08/12 03:57:57;;;;;;;19.42;12.40;;;12.60;86.10;;;;;;5059778;28;20480;-68
2021/08/12 04:00:23;;;;;;;6.07;2.72;;;12.60;85.80;;;;;;5053697;28;20033;-71
2021/08/12 04:02:50;;;;;;;5.18;1.02;;;12.50;85.60;;;;;;5057943;28;20044;-69
2021/08/12 04:05:16;;;;;;;1.90;1.10;;;12.50;85.50;;;;;;5060140;28;20024;-69
2021/08/12 04:07:43;;;;;;;2.03;1.05;;;12.40;85.50;;;;;;5062355;28;20020;-68
2021/08/12 04:10:10;;;;;;;4.75;0.85;;;12.40;85.30;;;;;;5056777;28;20044;-69
2021/08/12 04:12:36;;;;;;;3.10;0.60;;;12.40;85.30;;;;;;5057446;28;20021;-73
2021/08/12 04:15:03;;;;;;;1.27;0.50;;;12.30;85.00;;;;;;5058648;28;20052;-71
2021/08/12 04:17:29;;;;;;;2.80;0.63;;;12.40;85.20;;;;;;5055245;28;20120;-70
2021/08/12 04:19:56;;;;;;;7.28;0.88;;;12.30;85.20;;;;;;5058446;28;20047;-69
2021/08/12 04:22:22;;;;;;;2.15;1.13;;;12.30;85.20;;;;;;5057287;28;20063;-74
2021/08/12 04:24:49;;;;;;;2.42;0.70;;;12.40;85.00;;;;;;5049329;28;20029;-70
2021/08/12 04:27:15;;;;;;;1.27;0.60;;;12.40;85.10;;;;;;5051857;28;20020;-69
2021/08/12 04:29:42;;;;;;;46.03;34.33;;;12.40;85.40;;;;;;5050055;28;20013;-70
2021/08/12 04:32:08;;;;;;;34.35;25.50;;;12.40;85.90;;;;;;5045958;28;20025;-72
2021/08/12 04:34:35;;;;;;;16.80;11.35;;;12.50;86.10;;;;;;5048175;28;20447;-70
2021/08/12 04:37:01;;;;;;;3.50;2.40;;;12.50;86.70;;;;;;5049232;28;20108;-70
2021/08/12 04:39:28;;;;;;;1.50;0.77;;;12.50;85.90;;;;;;5044038;28;20076;-68
2021/08/12 04:41:54;;;;;;;3.38;0.73;;;12.50;85.80;;;;;;5051973;28;20017;-69
2021/08/12 04:44:21;;;;;;;1.50;0.55;;;12.40;85.40;;;;;;5048752;28;20056;-70
2021/08/12 04:46:47;;;;;;;3.65;0.98;;;12.40;85.10;;;;;;5045894;28;20075;-70
2021/08/12 04:49:14;;;;;;;3.45;0.80;;;12.30;84.70;;;;;;5047208;28;20017;-71
2021/08/12 04:51:42;;;;;;;3.20;0.70;;;12.30;84.70;;;;;;5047546;28;20522;-69
2021/08/12 04:54:08;;;;;;;1.35;0.60;;;12.30;84.40;;;;;;5058137;28;20045;-70
2021/08/12 04:56:35;;;;;;;4.97;0.80;;;12.20;84.40;;;;;;5059213;28;20040;-71
2021/08/12 04:59:41;;;;;;;2.42;0.65;;;12.20;84.50;;;;;;5060459;28;20033;-70
2021/08/12 05:02:47;;;;;;;2.78;1.65;;;12.20;84.50;;;;;;5057132;28;20020;-71
2021/08/12 05:05:53;;;;;;;3.17;1.20;;;12.20;84.30;;;;;;5057971;28;20387;-70
2021/08/12 05:08:59;;;;;;;3.60;1.20;;;12.10;84.10;;;;;;5057200;28;20104;-71
2021/08/12 05:12:05;;;;;;;1.58;1.02;;;12.20;84.10;;;;;;5057197;28;20047;-70
2021/08/12 05:15:11;;;;;;;5.88;1.70;;;12.20;84.10;;;;;;5057848;28;20024;-70
2021/08/12 05:18:17;;;;;;;2.67;1.77;;;12.20;84.10;;;;;;5059700;28;20063;-70
2021/08/12 05:21:23;;;;;;;3.97;1.65;;;12.20;83.90;;;;;;5060616;28;20466;-71
2021/08/12 05:24:29;;;;;;;6.18;1.25;;;12.20;83.80;;;;;;5058852;28;20443;-70
2021/08/12 05:27:35;;;;;;;8.93;2.22;;;12.20;83.70;;;;;;5058764;28;20487;-70
2021/08/12 05:30:41;;;;;;;6.72;2.22;;;12.20;83.80;;;;;;5059028;28;20036;-71
2021/08/12 05:33:48;;;;;;;3.13;1.55;;;12.20;84.00;;;;;;5062776;28;20045;-71
2021/08/12 05:36:54;;;;;;;4.45;1.10;;;12.20;84.00;;;;;;5054523;28;20024;-71
2021/08/12 05:40:00;;;;;;;3.67;1.20;;;12.20;84.20;;;;;;5059123;28;20051;-70
2021/08/12 05:43:07;;;;;;;5.00;1.30;;;12.20;84.20;;;;;;5056105;28;20114;-71
2021/08/12 05:46:13;;;;;;;3.65;1.23;;;12.20;84.40;;;;;;5055958;28;20018;-72
2021/08/12 05:49:23;;;;;;;4.10;1.67;;;12.20;84.40;;;;;;5056176;28;20071;-70
2021/08/12 05:52:29;;;;;;;3.88;1.40;;;12.20;84.50;;;;;;5056052;28;20020;-70
2021/08/12 05:55:35;;;;;;;4.93;2.00;;;12.20;84.40;;;;;;5055759;28;20036;-72
2021/08/12 05:58:41;;;;;;;3.58;1.40;;;12.30;85.00;;;;;;5056317;28;20423;-71
2021/08/12 06:01:47;;;;;;;5.47;1.63;;;12.30;84.40;;;;;;5057918;28;20036;-71
2021/08/12 06:04:53;;;;;;;6.53;1.75;;;12.30;84.00;;;;;;5053452;28;20022;-70
2021/08/12 06:07:59;;;;;;;5.35;1.30;;;12.30;83.80;;;;;;5060157;28;20025;-71
2021/08/12 06:11:05;;;;;;;8.20;1.98;;;12.30;83.60;;;;;;5061736;28;20043;-70
2021/08/12 06:14:12;;;;;;;4.68;1.58;;;12.20;83.40;;;;;;5056322;28;20481;-71
2021/08/12 06:17:18;;;;;;;5.13;1.70;;;12.20;83.20;;;;;;5057780;28;20036;-71
2021/08/12 06:20:24;;;;;;;7.60;1.90;;;12.30;83.10;;;;;;5058148;28;20040;-70
2021/08/12 06:23:30;;;;;;;5.18;1.80;;;12.30;83.20;;;;;;5051760;28;20494;-69
2021/08/12 06:26:36;;;;;;;3.90;1.90;;;12.30;83.50;;;;;;5055403;28;20021;-70
2021/08/12 06:29:42;;;;;;;3.28;1.98;;;12.40;83.90;;;;;;5058976;28;20090;-71
2021/08/12 06:32:48;;;;;;;4.38;1.67;;;12.40;83.90;;;;;;5060079;28;20021;-69
2021/08/12 06:35:54;;;;;;;4.38;1.50;;;12.30;84.30;;;;;;5061765;28;20107;-70
2021/08/12 06:39:00;;;;;;;6.13;2.03;;;12.30;84.30;;;;;;5059669;28;20515;-70
2021/08/12 06:42:06;;;;;;;10.50;1.58;;;12.30;84.10;;;;;;5060859;28;20048;-70
2021/08/12 06:45:12;;;;;;;6.78;2.92;;;12.30;83.40;;;;;;5054097;28;20017;-70
2021/08/12 06:48:18;;;;;;;5.65;2.30;;;12.30;83.50;;;;;;5060281;28;20013;-70
2021/08/12 06:51:24;;;;;;;5.15;1.45;;;12.30;83.60;;;;;;5057741;28;20112;-71
2021/08/12 06:54:31;;;;;;;4.70;1.77;;;12.20;83.80;;;;;;5051519;28;20369;-70
2021/08/12 06:57:37;;;;;;;4.30;1.70;;;12.20;84.10;;;;;;5057604;28;20778;-71
2021/08/12 07:00:43;;;;;;;8.10;1.70;;;12.30;84.00;;;;;;5057615;28;20037;-71
2021/08/12 07:03:49;;;;;;;6.95;1.60;;;12.40;83.80;;;;;;5053723;28;20060;-71
2021/08/12 07:06:55;;;;;;;5.90;1.30;;;12.40;83.70;;;;;;5053694;28;20017;-71
2021/08/12 07:10:01;;;;;;;6.47;2.50;;;12.50;83.70;;;;;;5058999;28;20068;-72
2021/08/12 07:13:07;;;;;;;5.65;2.75;;;12.50;83.50;;;;;;5053649;28;20379;-71
2021/08/12 07:16:14;;;;;;;4.30;1.73;;;12.60;83.50;;;;;;5054245;28;20016;-71
2021/08/12 07:19:20;;;;;;;4.30;1.80;;;12.60;83.20;;;;;;5055990;28;20024;-70
2021/08/12 07:22:26;;;;;;;6.45;2.88;;;12.70;82.90;;;;;;5054698;28;20052;-71
2021/08/12 07:25:32;;;;;;;6.30;1.30;;;12.70;82.40;;;;;;5057652;28;20512;-71
2021/08/12 07:28:38;;;;;;;7.53;1.50;;;12.80;82.20;;;;;;5059062;28;20055;-71
2021/08/12 07:31:44;;;;;;;3.83;1.13;;;12.80;81.90;;;;;;5057062;28;20024;-72
2021/08/12 07:34:50;;;;;;;7.10;1.98;;;12.90;81.40;;;;;;5056402;28;20487;-71
2021/08/12 07:37:56;;;;;;;4.95;1.95;;;12.90;81.10;;;;;;5054202;28;20108;-71
2021/08/12 07:41:03;;;;;;;9.27;1.95;;;12.90;80.00;;;;;;5055512;28;20484;-71
2021/08/12 07:44:09;;;;;;;5.15;1.05;;;12.90;78.20;;;;;;5057218;28;20419;-71
2021/08/12 07:47:15;;;;;;;4.20;1.02;;;12.80;78.40;;;;;;5057060;28;20016;-72
2021/08/12 07:50:21;;;;;;;5.53;0.73;;;12.80;77.80;;;;;;5057377;28;20031;-71
2021/08/12 07:53:27;;;;;;;5.10;0.93;;;12.80;78.00;;;;;;5057508;28;20024;-71
2021/08/12 07:56:33;;;;;;;2.15;1.08;;;12.80;78.20;;;;;;5058237;28;20116;-72
2021/08/12 07:59:39;;;;;;;7.07;1.15;;;12.90;78.50;;;;;;5054567;28;20029;-73
2021/08/12 08:02:45;;;;;;;6.15;1.63;;;12.90;78.60;;;;;;5056361;28;20468;-72
2021/08/12 08:05:51;;;;;;;4.50;2.13;;;13.10;78.80;;;;;;5062524;28;20017;-71
2021/08/12 08:08:57;;;;;;;4.75;1.83;;;13.20;78.90;;;;;;5059023;28;20063;-72
2021/08/12 08:12:03;;;;;;;8.00;1.58;;;13.30;79.30;;;;;;5060674;28;20021;-71
2021/08/12 08:15:10;;;;;;;8.43;2.00;;;13.40;79.10;;;;;;5059116;28;20369;-71
2021/08/12 08:17:56;;;;;;;;;;;13.50;78.10;;;;;;5062245;28;20048;-71
2021/08/12 08:21:02;;;;;;;8.40;1.38;;;13.70;77.80;;;;;;5046725;28;19955;-72
2021/08/12 08:24:09;;;;;;;10.48;2.05;;;13.70;76.70;;;;;;5054194;28;20024;-72
2021/08/12 08:26:55;;;;;;;;;;;13.80;75.70;;;;;;5056915;28;20016;-72
2021/08/12 08:30:01;;;;;;;4.47;1.30;;;13.80;75.40;;;;;;5060037;28;19943;-72
2021/08/12 08:33:07;;;;;;;9.82;2.22;;;13.80;73.10;;;;;;5057709;28;20264;-73
2021/08/12 08:36:13;;;;;;;11.10;2.17;;;13.70;72.80;;;;;;5055724;28;20021;-72
2021/08/12 08:39:19;;;;;;;6.25;2.10;;;13.70;71.70;;;;;;5058558;28;20096;-72
2021/08/12 08:42:25;;;;;;;8.23;2.28;;;13.70;71.70;;;;;;5058232;28;20124;-72
2021/08/12 08:45:31;;;;;;;7.55;1.50;;;13.70;71.80;;;;;;5056926;28;20492;-72
2021/08/12 08:48:38;;;;;;;5.03;1.40;;;13.80;70.20;;;;;;5058902;28;20450;-72
2021/08/12 08:51:24;;;;;;;;;;;13.80;68.60;;;;;;5058183;28;20057;-72
2021/08/12 08:54:30;;;;;;;5.95;1.20;;;13.90;67.50;;;;;;5056458;28;19944;-72
2021/08/12 08:57:36;;;;;;;6.88;1.25;;;14.00;66.60;;;;;;5059190;28;20021;-72
2021/08/12 09:00:42;;;;;;;3.40;1.00;;;14.10;65.70;;;;;;5059608;28;20056;-72
2021/08/12 09:03:49;;;;;;;10.02;1.40;;;14.20;65.30;;;;;;5058712;28;20021;-72
2021/08/12 09:06:55;;;;;;;5.47;1.00;;;14.30;64.50;;;;;;5060565;28;20028;-72
2021/08/12 09:10:01;;;;;;;3.00;1.60;;;14.40;63.00;;;;;;5059183;28;20046;-72
2021/08/12 09:13:08;;;;;;;6.03;1.55;;;14.50;61.60;;;;;;5053888;28;20033;-71
2021/08/12 09:16:20;;;;;;;4.47;1.45;;;14.50;60.90;;;;;;5057293;28;20021;-71
2021/08/12 09:19:38;;;;;;;5.68;0.90;;;14.50;60.60;;;;;;5053367;28;20055;-71
2021/08/12 09:22:45;;;;;;;6.25;1.58;;;14.60;60.00;;;;;;5063041;28;20048;-72
2021/08/12 09:25:51;;;;;;;1.95;0.95;;;14.60;60.20;;;;;;5058621;28;20016;-72
2021/08/12 09:28:47;;;;;;;4.47;0.85;;;14.70;61.20;;;;;;5060829;28;20387;-71
2021/08/12 09:31:53;;;;;;;5.97;0.87;;;14.80;59.80;;;;;;5054205;28;20027;-72
2021/08/12 09:35:04;;;;;;;4.78;1.17;;;14.90;59.00;;;;;;5055714;28;20025;-71
2021/08/12 09:38:10;;;;;;;4.38;1.20;;;14.90;58.70;;;;;;5060507;28;20411;-72
2021/08/12 09:41:16;;;;;;;5.85;1.92;;;14.80;58.10;;;;;;5056308;28;20040;-72
2021/08/12 09:44:22;;;;;;;3.60;1.67;;;14.80;57.40;;;;;;5054692;28;20013;-72
2021/08/12 09:47:29;;;;;;;3.70;1.13;;;14.90;56.80;;;;;;5055279;28;20028;-72
2021/08/12 09:50:35;;;;;;;6.40;0.70;;;14.90;56.90;;;;;;5057088;28;20020;-72
2021/08/12 09:53:41;;;;;;;4.47;0.75;;;15.10;56.50;;;;;;5056339;28;20400;-72
2021/08/12 09:56:47;;;;;;;5.63;0.80;;;15.20;55.10;;;;;;5056673;28;20093;-72
2021/08/12 09:59:53;;;;;;;2.38;0.82;;;15.30;54.70;;;;;;5058361;28;20115;-72
2021/08/12 10:02:59;;;;;;;4.18;1.02;;;15.50;54.60;;;;;;5056640;28;20016;-71
2021/08/12 10:06:24;;;;;;;3.42;0.77;;;15.60;53.70;;;;;;5056820;28;20032;-72
2021/08/12 10:09:33;;;;;;;3.05;0.93;;;15.60;52.20;;;;;;5057707;28;20471;-72
2021/08/12 10:12:48;;;;;;;4.57;1.10;;;15.80;53.20;;;;;;5060466;28;20066;-71
2021/08/12 10:15:54;;;;;;;2.72;1.58;;;15.80;53.80;;;;;;5053832;28;20495;-72
2021/08/12 10:19:04;;;;;;;6.03;1.92;;;15.80;53.50;;;;;;5053089;28;20021;-72
2021/08/12 10:22:10;;;;;;;1.75;1.05;;;15.90;53.50;;;;;;5054645;28;20013;-71
2021/08/12 10:25:16;;;;;;;5.15;1.33;;;15.80;53.80;;;;;;5060026;28;20107;-71
2021/08/12 10:28:23;;;;;;;5.93;1.58;;;15.70;54.50;;;;;;5061906;28;20024;-71
2021/08/12 10:31:29;;;;;;;8.25;1.38;;;15.60;57.20;;;;;;5050739;28;20037;-71
2021/08/12 10:34:38;;;;;;;5.47;1.33;;;15.50;58.50;;;;;;5059025;28;20028;-72
2021/08/12 10:37:44;;;;;;;5.25;1.40;;;15.30;58.60;;;;;;5058660;28;20025;-71
2021/08/12 10:40:52;;;;;;;3.60;1.15;;;15.40;58.30;;;;;;5055680;28;20632;-72
2021/08/12 10:44:04;;;;;;;3.38;1.45;;;15.50;57.60;;;;;;5059140;28;20020;-72
2021/08/12 10:47:16;;;;;;;5.90;1.25;;;15.70;57.50;;;;;;5057050;28;20024;-72
2021/08/12 10:50:23;;;;;;;3.60;1.15;;;15.80;56.90;;;;;;5055253;28;20028;-72
2021/08/12 10:53:09;;;;;;;2.45;1.55;;;16.00;56.00;;;;;;5043008;28;20021;-72
2021/08/12 10:56:18;;;;;;;6.22;1.27;;;16.10;55.10;;;;;;5058197;28;20040;-72
2021/08/12 10:59:24;;;;;;;4.63;1.25;;;16.30;54.60;;;;;;5056556;28;20107;-72
2021/08/12 11:02:29;;;;;;;4.28;0.90;;;16.40;54.40;;;;;;5051182;28;20079;-72
2021/08/12 11:05:38;;;;;;;3.58;1.00;;;16.50;54.40;;;;;;5055262;28;20021;-73
2021/08/12 11:08:42;;;;;;;3.80;1.73;;;16.60;53.30;;;;;;5057524;28;20055;-72
2021/08/12 11:11:31;;;;;;;6.40;0.90;;;16.70;51.60;;;;;;5056674;28;20019;-73
2021/08/12 11:14:39;;;;;;;2.42;1.40;;;16.80;52.10;;;;;;5054793;28;20019;-73
2021/08/12 11:17:45;;;;;;;4.32;1.48;;;16.90;53.40;;;;;;5057424;28;20597;-72
2021/08/12 11:20:51;;;;;;;3.58;1.10;;;17.00;54.10;;;;;;5053572;28;20020;-72
2021/08/12 11:23:21;;;;;;;9.68;1.20;;;16.90;53.70;;;;;;5059536;28;20431;-72
2021/08/12 11:26:13;;;;;;;4.68;1.88;;;16.90;53.60;;;;;;5060469;28;20024;-72
2021/08/12 11:28:40;;;;;;;4.68;0.98;;;16.90;53.60;;;;;;5058786;28;20132;-72
2021/08/12 11:31:29;;;;;;;7.22;1.20;;;17.00;53.20;;;;;;5058416;28;20020;-73
2021/08/12 11:34:35;;;;;;;3.20;1.35;;;17.00;52.30;;;;;;5060437;28;20388;-72
2021/08/12 11:37:07;;;;;;;7.15;0.90;;;17.00;51.70;;;;;;5060544;28;20029;-71
2021/08/12 11:40:00;;;;;;;7.00;1.55;;;17.00;50.80;;;;;;5058088;28;20021;-73
2021/08/12 11:43:06;;;;;;;7.72;2.88;;;17.20;51.50;;;;;;5057474;28;20122;-72
2021/08/12 11:45:52;;;;;;;;;;;17.30;51.90;;;;;;5056147;28;20547;-72
2021/08/12 11:48:58;;;;;;;2.78;1.35;;;17.30;52.50;;;;;;5057715;28;20351;-72
2021/08/12 11:52:06;;;;;;;4.25;1.08;;;17.40;53.00;;;;;;5061142;28;20020;-72
2021/08/12 11:55:16;;;;;;;6.50;1.42;;;17.40;53.10;;;;;;5064274;28;20167;-72
2021/08/12 11:58:25;;;;;;;3.90;0.98;;;17.50;53.70;;;;;;5045257;28;20166;-72
2021/08/12 12:01:32;;;;;;;6.55;1.77;;;17.60;53.50;;;;;;5058388;28;20025;-71
2021/08/12 12:04:38;;;;;;;7.20;1.38;;;17.50;53.30;;;;;;5058076;28;20028;-70
2021/08/12 12:07:24;;;;;;;;;;;17.30;52.70;;;;;;5055731;28;20060;-70
2021/08/12 12:10:30;;;;;;;10.32;1.33;;;17.00;53.40;;;;;;5054111;28;20637;-70
2021/08/12 12:13:51;;;;;;;3.15;2.15;;;17.00;54.40;;;;;;5053725;28;20028;-71
2021/08/12 12:16:58;;;;;;;4.38;1.58;;;17.00;54.90;;;;;;5057101;28;20104;-71
2021/08/12 12:20:19;;;;;;;3.50;1.35;;;17.10;54.60;;;;;;5055334;28;20548;-72
2021/08/12 12:23:43;;;;;;;6.65;1.30;;;17.20;53.70;;;;;;5057900;28;20025;-72
2021/08/12 12:27:02;;;;;;;3.97;0.85;;;17.40;52.30;;;;;;5065583;28;20024;-71
2021/08/12 12:30:08;;;;;;;3.95;2.17;;;17.50;51.60;;;;;;5057624;28;20056;-72
2021/08/12 12:33:06;;;;;;;2.03;0.93;;;17.50;50.90;;;;;;5062033;28;20025;-71
2021/08/12 12:36:12;;;;;;;5.40;1.20;;;17.40;51.10;;;;;;5058055;28;20079;-71
2021/08/12 12:39:18;;;;;;;2.55;0.68;;;17.40;49.30;;;;;;5055192;28;20020;-71
2021/08/12 12:42:24;;;;;;;1.83;0.70;;;17.30;50.00;;;;;;5056579;28;20387;-72
2021/08/12 12:45:39;;;;;;;3.65;1.02;;;17.30;51.00;;;;;;5058571;28;20016;-71
2021/08/12 12:48:51;;;;;;;4.85;1.25;;;17.30;49.30;;;;;;5055904;28;20826;-72
2021/08/12 12:51:57;;;;;;;5.30;1.40;;;17.30;49.10;;;;;;5056136;28;20497;-71
2021/08/12 12:55:09;;;;;;;5.00;1.98;;;17.20;49.10;;;;;;5058610;28;20071;-71
2021/08/12 12:58:15;;;;;;;4.00;0.80;;;17.10;50.00;;;;;;5054768;28;20013;-71
2021/08/12 13:01:22;;;;;;;1.73;1.13;;;17.00;51.50;;;;;;5059737;28;20491;-72
2021/08/12 13:04:37;;;;;;;5.63;1.95;;;16.90;52.90;;;;;;5053998;28;20024;-71
2021/08/12 13:07:43;;;;;;;3.75;1.17;;;16.80;53.80;;;;;;5059760;28;20024;-71
2021/08/12 13:11:01;;;;;;;6.47;1.25;;;16.80;54.60;;;;;;5061851;28;20376;-72
2021/08/12 13:14:07;;;;;;;5.57;1.13;;;16.90;54.90;;;;;;5054444;28;20147;-72
2021/08/12 13:17:19;;;;;;;6.28;1.80;;;17.00;55.10;;;;;;5056386;28;20097;-72
2021/08/12 13:20:28;;;;;;;1.73;1.00;;;17.10;54.40;;;;;;5056826;28;20040;-72
2021/08/12 13:23:34;;;;;;;4.50;1.30;;;17.10;53.50;;;;;;5042361;28;20017;-72
2021/08/12 13:26:59;;;;;;;4.88;1.00;;;17.10;53.00;;;;;;5060557;28;20391;-72
2021/08/12 13:30:05;;;;;;;0.88;0.40;;;17.10;52.50;;;;;;5057892;28;20042;-73
2021/08/12 13:33:14;;;;;;;3.10;0.90;;;17.10;49.50;;;;;;5060730;28;20021;-71
2021/08/12 13:36:20;;;;;;;4.75;1.73;;;17.20;50.50;;;;;;5062006;28;20479;-71
2021/08/12 13:39:27;;;;;;;4.82;1.02;;;17.10;50.40;;;;;;5052778;28;20075;-71
2021/08/12 13:41:53;;;;;;;;;;;17.00;51.10;;;;;;5055193;28;20514;-71
2021/08/12 13:44:59;;;;;;;8.27;2.85;;;17.00;52.00;;;;;;5057860;28;19905;-72
2021/08/12 13:48:05;;;;;;;2.72;1.33;;;17.00;52.20;;;;;;5055653;28;20013;-72
2021/08/12 13:51:11;;;;;;;5.95;1.42;;;17.00;52.20;;;;;;5057348;28;20127;-72
2021/08/12 13:54:17;;;;;;;1.58;0.60;;;17.00;51.80;;;;;;5055533;28;20103;-72
2021/08/12 13:57:23;;;;;;;3.58;0.77;;;17.00;50.60;;;;;;5054920;28;20055;-72
2021/08/12 14:00:29;;;;;;;6.20;1.30;;;17.00;50.10;;;;;;5055994;28;20028;-72
2021/08/12 14:03:36;;;;;;;5.85;0.98;;;17.00;50.40;;;;;;5052215;28;20013;-72
2021/08/12 14:06:42;;;;;;;2.17;0.90;;;16.90;51.20;;;;;;5055726;28;20116;-72
2021/08/12 14:09:48;;;;;;;4.75;0.70;;;17.00;52.00;;;;;;5053973;28;20025;-72
2021/08/12 14:12:14;;;;;;;8.77;1.05;;;16.90;52.10;;;;;;5052636;28;20013;-73
2021/08/12 14:14:41;;;;;;;5.10;1.58;;;16.90;53.40;;;;;;5054557;28;20029;-73
2021/08/12 14:17:47;;;;;;;4.13;0.85;;;16.90;54.50;;;;;;5053230;28;20352;-74
2021/08/12 14:20:53;;;;;;;8.10;1.05;;;16.90;53.70;;;;;;5065244;28;20060;-67
2021/08/12 14:23:59;;;;;;;7.75;1.23;;;16.80;53.70;;;;;;5059623;28;20365;-68
2021/08/12 14:27:05;;;;;;;4.75;1.77;;;16.70;53.70;;;;;;5047581;28;20019;-68
2021/08/12 14:30:11;;;;;;;6.10;1.27;;;16.70;54.00;;;;;;5046443;28;20118;-72
2021/08/12 14:33:17;;;;;;;8.63;1.90;;;16.60;54.10;;;;;;5046363;28;20053;-73
2021/08/12 14:36:23;;;;;;;13.70;8.27;;;16.60;55.60;;;;;;5045939;28;20115;-67
2021/08/12 14:39:30;;;;;;;15.65;6.25;;;16.60;54.90;;;;;;5044605;28;20029;-69
2021/08/12 14:42:18;;;;;;;;;;;16.60;55.30;;;;;;5050761;28;20547;-68
2021/08/12 14:45:24;;;;;;;8.68;1.92;;;16.60;54.90;;;;;;5048694;28;19950;-66
2021/08/12 14:48:31;;;;;;;3.90;1.00;;;16.60;54.30;;;;;;5045542;28;20045;-66
2021/08/12 14:50:59;;;;;;;4.82;1.77;;;16.50;54.10;;;;;;5049086;28;20484;-71
2021/08/12 14:53:26;;;;;;;5.95;1.23;;;16.40;53.50;;;;;;5046674;28;20071;-65
2021/08/12 14:55:54;;;;;;;6.00;1.80;;;16.30;53.30;;;;;;5045503;28;20021;-67